Time;durP1;ratioP1;P1;durP2;ratioP2;P2;SDS_P1;SDS_P2;PMS_P1;PMS_P2;Temp;Humidity;BMP_temperature;BMP_pressure;BME280_temperature;BME280_humidity;BME280_pressure;Samples;Min_cycle;Max_cycle;Signal;HPM_P1;HPM_P2
2022/11/02 00:01:19;;;;;;;17.15;12.20;;;;;;;12.27;55.32;95581.16;5022609;28;20194;-65
2022/11/02 00:03:45;;;;;;;20.27;12.32;;;;;;;12.07;55.42;95579.59;5025517;28;20208;-66
2022/11/02 00:06:11;;;;;;;18.50;13.35;;;;;;;11.85;56.17;95581.63;5029057;28;20186;-66
2022/11/02 00:08:36;;;;;;;20.83;14.27;;;;;;;11.97;55.92;95578.81;5020841;28;20186;-66
2022/11/02 00:11:02;;;;;;;21.63;13.75;;;;;;;12.07;55.57;95579.59;5029955;28;20194;-65
2022/11/02 00:13:27;;;;;;;21.52;13.90;;;;;;;11.99;55.78;95585.59;5028203;28;20183;-65
2022/11/02 00:15:53;;;;;;;26.17;15.98;;;;;;;12.05;56.01;95574.47;5026304;28;20209;-66
2022/11/02 00:18:19;;;;;;;29.02;15.80;;;;;;;12.02;55.83;95582.69;5023262;28;20281;-66
2022/11/02 00:20:44;;;;;;;23.42;16.65;;;;;;;11.80;55.99;95583.03;5024101;28;20206;-66
2022/11/02 00:23:12;;;;;;;24.15;15.43;;;;;;;11.60;56.81;95587.53;5028607;28;20281;-66
2022/11/02 00:25:45;;;;;;;24.90;15.48;;;;;;;11.61;56.92;95584.78;5043725;28;20862;-66
2022/11/02 00:28:11;;;;;;;24.05;14.02;;;;;;;11.52;57.52;95585.66;5025576;28;20627;-66
2022/11/02 00:30:37;;;;;;;22.77;15.00;;;;;;;11.71;56.85;95576.84;5015731;28;20190;-65
2022/11/02 00:33:02;;;;;;;29.10;15.88;;;;;;;11.60;57.22;95580.50;5027466;28;20192;-64
2022/11/02 00:35:28;;;;;;;28.55;17.92;;;;;;;11.51;57.30;95569.97;5027215;28;20264;-65
2022/11/02 00:37:54;;;;;;;30.05;17.45;;;;;;;11.41;57.42;95568.22;5026561;28;20182;-65
2022/11/02 00:40:19;;;;;;;29.08;17.42;;;;;;;11.50;57.26;95576.22;5027847;28;20192;-65
2022/11/02 00:42:45;;;;;;;26.70;17.50;;;;;;;11.59;56.89;95570.91;5027999;28;20198;-65
2022/11/02 00:45:10;;;;;;;30.90;16.75;;;;;;;11.58;57.39;95576.34;5023338;28;20250;-65
2022/11/02 00:47:36;;;;;;;29.70;16.45;;;;;;;11.52;57.45;95574.25;5027806;28;20186;-65
2022/11/02 00:50:02;;;;;;;28.60;18.23;;;;;;;11.44;57.47;95567.94;5022295;28;20557;-66
2022/11/02 00:52:28;;;;;;;28.77;18.02;;;;;;;11.56;57.00;95565.94;5029062;28;20189;-66
2022/11/02 00:54:53;;;;;;;26.55;17.83;;;;;;;11.59;56.76;95564.81;5027746;28;20186;-66
2022/11/02 00:57:19;;;;;;;30.23;17.90;;;;;;;11.53;57.20;95581.22;5024098;28;20195;-66
2022/11/02 00:59:44;;;;;;;25.92;16.65;;;;;;;11.47;57.40;95572.91;5024120;28;20249;-66
2022/11/02 01:02:09;;;;;;;27.50;16.90;;;;;;;11.55;57.14;95568.72;5027609;28;20210;-66
2022/11/02 01:04:35;;;;;;;25.25;17.77;;;;;;;11.61;57.21;95560.25;5029617;28;20186;-66
2022/11/02 01:07:02;;;;;;;27.23;16.17;;;;;;;11.58;57.37;95566.63;5028125;28;21262;-66
2022/11/02 01:09:27;;;;;;;25.45;15.35;;;;;;;11.31;57.66;95566.59;5026242;28;20194;-65
2022/11/02 01:11:53;;;;;;;21.30;14.90;;;;;;;11.26;58.22;95567.81;5028980;28;20183;-66
2022/11/02 01:14:19;;;;;;;23.50;14.55;;;;;;;11.29;57.66;95564.09;5023679;28;20194;-66
2022/11/02 01:16:45;;;;;;;26.50;15.20;;;;;;;11.32;57.39;95573.50;5028471;28;20198;-65
2022/11/02 01:19:10;;;;;;;25.70;15.23;;;;;;;11.18;57.48;95561.63;5026343;28;20236;-65
2022/11/02 01:21:36;;;;;;;27.58;14.23;;;;;;;11.26;57.77;95575.72;5025390;28;20210;-66
2022/11/02 01:24:01;;;;;;;20.23;13.48;;;;;;;11.24;57.63;95572.41;5026343;28;20218;-66
2022/11/02 01:26:27;;;;;;;19.15;12.43;;;;;;;11.15;57.81;95572.44;5027959;28;20216;-65
2022/11/02 01:28:53;;;;;;;18.15;12.30;;;;;;;11.11;58.02;95566.59;5031822;28;20216;-66
2022/11/02 01:31:18;;;;;;;18.48;12.15;;;;;;;11.03;57.84;95567.31;5028055;28;20707;-66
2022/11/02 01:33:45;;;;;;;17.10;11.13;;;;;;;10.95;58.39;95561.09;5027399;28;20191;-66
2022/11/02 01:36:11;;;;;;;19.25;11.70;;;;;;;11.02;58.01;95568.28;5027160;28;20190;-66
2022/11/02 01:38:37;;;;;;;15.80;10.80;;;;;;;11.04;58.00;95563.72;5024843;28;20198;-66
2022/11/02 01:41:03;;;;;;;13.77;9.95;;;;;;;11.16;57.52;95563.56;5028568;28;20190;-66
2022/11/02 01:43:33;;;;;;;19.05;9.65;;;;;;;11.11;57.62;95556.06;5027983;28;20635;-66
2022/11/02 01:46:06;;;;;;;17.70;9.88;;;;;;;11.20;57.43;95549.13;5026420;28;20218;-67
2022/11/02 01:49:02;;;;;;;15.50;9.85;;;;;;;11.34;57.15;95559.22;5030877;28;20198;-66
2022/11/02 01:51:41;;;;;;;15.52;8.50;;;;;;;11.15;57.42;95543.50;4989992;28;20210;-66
2022/11/02 01:54:21;;;;;;;19.88;10.38;;;;;;;11.10;57.68;95551.81;4975100;28;20191;-67
2022/11/02 01:56:51;;;;;;;17.67;9.60;;;;;;;11.13;57.66;95554.13;4974213;28;20211;-67
2022/11/02 01:59:20;;;;;;;17.25;9.75;;;;;;;11.14;57.43;95552.34;4972860;28;20199;-66
2022/11/02 02:01:46;;;;;;;17.27;10.38;;;;;;;11.10;57.60;95540.44;4975021;28;20271;-66
2022/11/02 02:04:12;;;;;;;17.83;10.98;;;;;;;11.05;57.75;95551.41;4972330;28;20226;-66
2022/11/02 02:06:39;;;;;;;16.40;10.57;;;;;;;11.07;57.87;95553.91;4990604;28;20211;-63
2022/11/02 02:09:06;;;;;;;18.87;10.27;;;;;;;10.93;58.27;95545.47;4972891;28;20220;-66
2022/11/02 02:11:33;;;;;;;16.70;10.30;;;;;;;10.90;58.50;95548.34;4974148;28;20306;-66
2022/11/02 02:14:19;;;;;;;17.00;10.93;;;;;;;10.98;58.22;95545.84;4968326;28;20202;-66
2022/11/02 02:17:03;;;;;;;17.08;11.05;;;;;;;10.91;58.36;95544.78;4967092;28;20219;-66
2022/11/02 02:19:38;;;;;;;16.40;10.95;;;;;;;10.85;58.45;95534.78;4990506;28;20876;-66
2022/11/02 02:22:03;;;;;;;20.42;11.50;;;;;;;10.80;58.90;95547.56;4988170;28;20210;-67
2022/11/02 02:24:50;;;;;;;21.52;12.20;;;;;;;10.79;58.69;95538.00;4976595;28;20195;-67
2022/11/02 02:27:32;;;;;;;19.05;11.18;;;;;;;10.78;58.90;95545.06;4978807;28;20200;-67
2022/11/02 02:30:06;;;;;;;15.65;11.30;;;;;;;10.85;58.24;95536.59;5028884;28;20198;-67
2022/11/02 02:32:37;;;;;;;16.97;10.53;;;;;;;10.86;57.80;95522.50;5031334;28;20182;-66
2022/11/02 02:35:09;;;;;;;19.55;10.23;;;;;;;10.93;57.92;95531.47;5028133;28;20194;-67
2022/11/02 02:37:42;;;;;;;16.50;8.70;;;;;;;10.74;58.31;95530.50;5025120;28;20612;-66
2022/11/02 02:40:15;;;;;;;15.80;9.27;;;;;;;10.65;58.55;95528.72;5027742;28;20561;-66
2022/11/02 02:43:11;;;;;;;15.63;9.77;;;;;;;10.72;58.61;95536.88;5030655;28;20229;-66
2022/11/02 02:45:57;;;;;;;16.60;9.70;;;;;;;10.57;59.23;95537.31;5020199;28;20226;-67
2022/11/02 02:48:24;;;;;;;20.37;10.27;;;;;;;10.67;59.15;95536.50;5028537;28;20193;-66
2022/11/02 02:50:53;;;;;;;19.30;10.07;;;;;;;10.77;58.75;95542.56;5023224;28;20194;-66
2022/11/02 02:53:30;;;;;;;15.38;9.18;;;;;;;10.47;59.80;95536.47;5030063;28;20272;-66
2022/11/02 02:55:58;;;;;;;15.50;9.60;;;;;;;10.39;60.31;95538.97;5026669;28;20894;-65
2022/11/02 02:58:29;;;;;;;16.88;9.30;;;;;;;10.33;60.43;95539.53;5026220;28;20205;-65
2022/11/02 03:00:55;;;;;;;17.30;9.67;;;;;;;10.41;59.92;95529.16;5030180;28;20193;-65
2022/11/02 03:03:24;;;;;;;18.43;8.83;;;;;;;10.52;59.40;95543.97;5030125;28;20352;-65
2022/11/02 03:06:05;;;;;;;20.97;8.97;;;;;;;10.59;59.07;95538.00;5027814;28;20190;-66
2022/11/02 03:08:34;;;;;;;15.68;10.13;;;;;;;10.50;59.55;95535.38;5029598;28;20198;-66
2022/11/02 03:11:14;;;;;;;14.85;9.07;;;;;;;10.44;59.42;95534.13;5026669;28;20224;-66
2022/11/02 03:13:40;;;;;;;14.10;9.18;;;;;;;10.56;59.02;95548.81;5024721;28;20185;-65
2022/11/02 03:16:26;;;;;;;18.13;9.52;;;;;;;10.55;58.70;95546.31;5027902;28;20256;-65
2022/11/02 03:18:58;;;;;;;16.48;9.88;;;;;;;10.16;60.43;95539.22;5024287;28;20186;-65
2022/11/02 03:21:31;;;;;;;15.60;9.52;;;;;;;10.36;59.74;95545.34;5022255;28;20202;-65
2022/11/02 03:24:07;;;;;;;16.45;9.05;;;;;;;10.31;59.56;95550.16;5030102;28;20216;-65
2022/11/02 03:26:46;;;;;;;15.30;8.70;;;;;;;10.18;60.04;95546.09;5028366;28;20272;-65
2022/11/02 03:29:20;;;;;;;17.77;9.18;;;;;;;10.31;59.92;95546.72;5029654;28;20193;-65
2022/11/02 03:31:59;;;;;;;17.75;9.77;;;;;;;10.25;60.06;95549.88;5024527;28;20248;-65
2022/11/02 03:34:48;;;;;;;13.67;8.80;;;;;;;10.30;59.78;95542.44;5029155;28;20232;-65
2022/11/02 03:37:23;;;;;;;12.63;8.07;;;;;;;10.29;59.66;95543.38;5039849;28;20190;-65
2022/11/02 03:39:56;;;;;;;17.73;8.63;;;;;;;10.37;59.32;95543.53;5027171;28;20200;-65
2022/11/02 03:42:26;;;;;;;15.23;8.55;;;;;;;10.37;59.57;95546.16;5029278;28;20217;-65
2022/11/02 03:45:16;;;;;;;14.27;8.67;;;;;;;10.38;59.62;95553.09;5024343;28;20658;-65
2022/11/02 03:47:46;;;;;;;14.73;8.63;;;;;;;10.37;59.58;95546.16;5027502;28;20651;-64
2022/11/02 03:50:14;;;;;;;16.20;8.70;;;;;;;10.11;60.36;95546.66;5028897;28;20193;-64
2022/11/02 03:52:44;;;;;;;16.40;8.53;;;;;;;10.10;60.81;95547.66;5024049;28;20206;-65
2022/11/02 03:55:09;;;;;;;12.03;8.10;;;;;;;9.87;60.97;95536.53;5028928;28;20182;-64
2022/11/02 03:57:47;;;;;;;13.55;8.20;;;;;;;9.98;60.66;95546.09;5024519;28;20664;-64
2022/11/02 04:00:18;;;;;;;12.82;8.25;;;;;;;9.81;61.25;95538.84;5027194;28;20190;-65
2022/11/02 04:02:47;;;;;;;12.88;8.70;;;;;;;9.82;61.27;95530.00;5013783;28;20209;-65
2022/11/02 04:05:13;;;;;;;15.10;9.37;;;;;;;9.88;61.10;95538.16;5023728;28;20190;-65
2022/11/02 04:10:26;;;;;;;14.33;8.90;;;;;;;9.88;61.34;95537.34;5023257;28;20185;-65
2022/11/02 04:15:36;;;;;;;18.67;11.15;;;;;;;10.02;60.90;95526.44;5029214;28;20197;-66
2022/11/02 04:20:49;;;;;;;24.93;12.47;;;;;;;9.82;61.39;95532.63;5024573;28;20329;-65
2022/11/02 04:26:00;;;;;;;21.73;13.67;;;;;;;9.57;62.00;95537.41;5026364;28;20212;-65
2022/11/02 04:28:25;;;;;;;16.93;12.93;;;;;;;9.60;61.86;95537.13;5026209;28;20187;-65
2022/11/02 04:30:51;;;;;;;18.83;13.37;;;;;;;9.70;61.73;95543.25;5029014;28;20236;-65
2022/11/02 04:33:31;;;;;;;20.53;13.13;;;;;;;9.75;61.57;95547.25;5026484;28;20193;-65
2022/11/02 04:36:05;;;;;;;15.20;11.23;;;;;;;9.80;61.31;95551.16;5026578;28;20664;-64
2022/11/02 04:38:40;;;;;;;18.43;12.97;;;;;;;9.68;61.97;95549.59;5024544;28;20276;-65
2022/11/02 04:43:54;;;;;;;21.87;12.40;;;;;;;9.37;62.76;95543.53;5029237;28;20217;-66
2022/11/02 04:46:21;;;;;;;18.40;12.57;;;;;;;9.30;63.19;95552.88;5025955;28;20234;-64
2022/11/02 04:48:46;;;;;;;19.27;11.53;;;;;;;9.28;63.19;95551.22;5027486;28;20271;-65
2022/11/02 04:51:12;;;;;;;18.70;11.20;;;;;;;9.47;62.71;95547.03;5025173;28;20377;-65
2022/11/02 04:53:37;;;;;;;17.53;11.27;;;;;;;9.41;62.45;95547.53;5024682;28;20214;-64
2022/11/02 04:56:03;;;;;;;17.63;11.10;;;;;;;9.44;62.59;95556.00;5024440;28;20191;-65
2022/11/02 04:58:29;;;;;;;14.13;10.17;;;;;;;9.55;62.58;95546.38;5023745;28;20190;-65
2022/11/02 05:00:54;;;;;;;16.00;9.83;;;;;;;9.61;62.42;95544.03;5031042;28;20351;-64
2022/11/02 05:03:19;;;;;;;17.93;11.17;;;;;;;9.67;62.10;95546.13;5028257;28;20253;-65
2022/11/02 05:05:45;;;;;;;15.63;10.23;;;;;;;9.78;62.07;95549.63;5025977;28;20260;-64
2022/11/02 05:08:10;;;;;;;20.07;10.67;;;;;;;9.78;61.83;95550.44;5029315;28;20563;-64
2022/11/02 05:10:36;;;;;;;19.80;11.63;;;;;;;9.75;61.72;95547.25;5027380;28;20195;-64
2022/11/02 05:13:01;;;;;;;23.47;12.13;;;;;;;9.51;62.51;95548.41;5028367;28;20193;-65
2022/11/02 05:15:27;;;;;;;18.87;11.50;;;;;;;9.55;62.45;95551.63;5031695;28;20182;-67
2022/11/02 05:17:52;;;;;;;24.33;11.83;;;;;;;9.66;62.13;95559.41;5026669;28;20191;-67
2022/11/02 05:20:18;;;;;;;18.50;11.33;;;;;;;9.41;63.02;95565.91;5031417;28;20278;-69
2022/11/02 05:22:43;;;;;;;17.50;10.53;;;;;;;9.58;62.23;95560.06;5022749;28;20294;-68
2022/11/02 05:25:10;;;;;;;20.10;10.87;;;;;;;9.67;62.35;95569.75;5029593;28;20186;-68
2022/11/02 05:27:36;;;;;;;23.20;12.03;;;;;;;9.81;61.99;95571.22;5031627;28;20637;-66
2022/11/02 05:30:03;;;;;;;32.43;13.97;;;;;;;9.71;62.10;95563.28;5032194;28;20190;-67
2022/11/02 05:32:28;;;;;;;24.63;12.87;;;;;;;9.78;61.91;95578.50;5032566;28;20189;-68
2022/11/02 05:34:53;;;;;;;31.47;13.67;;;;;;;9.87;61.82;95578.56;5030351;28;20190;-66
2022/11/02 05:37:19;;;;;;;27.03;12.60;;;;;;;9.94;61.19;95586.72;5025140;28;20577;-66
2022/11/02 05:39:44;;;;;;;30.77;13.27;;;;;;;9.96;61.43;95587.41;5028333;28;20198;-67
2022/11/02 05:42:10;;;;;;;31.30;13.37;;;;;;;10.02;61.02;95581.63;5025351;28;20197;-66
2022/11/02 05:44:35;;;;;;;40.43;14.60;;;;;;;9.73;62.08;95581.56;5031478;28;20190;-66
2022/11/02 05:47:02;;;;;;;26.70;12.70;;;;;;;9.82;61.93;95593.03;5026481;28;20234;-66
2022/11/02 05:49:28;;;;;;;22.77;11.80;;;;;;;9.75;62.18;95587.47;5030819;28;20195;-66
2022/11/02 05:51:53;;;;;;;15.73;11.57;;;;;;;9.91;61.55;95587.81;5028264;28;20189;-67
2022/11/02 05:54:19;;;;;;;21.40;11.70;;;;;;;9.98;61.95;95598.63;5028030;28;20244;-66
2022/11/02 05:56:45;;;;;;;24.83;12.23;;;;;;;9.97;62.26;95604.84;5026648;28;20622;-67
2022/11/02 05:59:10;;;;;;;22.37;11.77;;;;;;;10.03;62.09;95604.31;5025158;28;20660;-67
2022/11/02 06:01:35;;;;;;;21.93;12.10;;;;;;;10.04;62.52;95608.59;5028871;28;20638;-68
2022/11/02 06:04:01;;;;;;;28.13;13.03;;;;;;;9.98;62.28;95608.31;5030971;28;20226;-67
2022/11/02 06:06:26;;;;;;;22.23;12.60;;;;;;;10.12;61.78;95613.19;5029728;28;20188;-67
2022/11/02 06:08:52;;;;;;;20.87;11.70;;;;;;;10.18;61.79;95617.88;5025724;28;20212;-67
2022/11/02 06:11:18;;;;;;;28.00;12.27;;;;;;;10.29;61.59;95617.84;5029194;28;20182;-66
2022/11/02 06:13:43;;;;;;;28.33;13.90;;;;;;;10.36;61.23;95616.31;5025678;28;20680;-68
2022/11/02 06:16:11;;;;;;;27.83;12.77;;;;;;;10.38;61.40;95616.19;5008293;28;20191;-68
2022/11/02 06:18:37;;;;;;;26.07;13.60;;;;;;;10.62;60.78;95620.25;5024371;28;20212;-68
2022/11/02 06:21:03;;;;;;;25.13;13.80;;;;;;;10.74;60.55;95622.56;5024714;28;20218;-68
2022/11/02 06:23:29;;;;;;;20.70;13.43;;;;;;;10.96;59.49;95616.22;5028227;28;20807;-67
2022/11/02 06:25:57;;;;;;;27.20;14.23;;;;;;;10.87;60.38;95619.66;5031537;28;20270;-68
2022/11/02 06:28:22;;;;;;;24.13;14.03;;;;;;;10.93;60.46;95613.03;5030493;28;20190;-66
2022/11/02 06:30:49;;;;;;;23.03;13.90;;;;;;;10.82;60.78;95617.47;5031481;28;20186;-67
2022/11/02 06:33:15;;;;;;;23.80;14.17;;;;;;;11.00;60.24;95622.03;5022230;28;20621;-66
2022/11/02 06:35:44;;;;;;;28.20;15.10;;;;;;;10.99;60.15;95617.75;5025532;28;20186;-66
2022/11/02 06:38:10;;;;;;;23.25;14.82;;;;;;;11.04;60.15;95613.72;5030584;28;20186;-66
2022/11/02 06:40:35;;;;;;;18.73;14.00;;;;;;;11.33;58.98;95612.84;5025790;28;20264;-65
2022/11/02 06:43:00;;;;;;;23.57;14.53;;;;;;;11.47;58.55;95624.75;5026103;28;20730;-67
2022/11/02 06:45:26;;;;;;;23.48;15.18;;;;;;;11.53;58.22;95615.44;5026823;28;20720;-67
2022/11/02 06:47:51;;;;;;;27.67;16.52;;;;;;;11.74;57.90;95631.06;5024835;28;20198;-67
2022/11/02 06:50:17;;;;;;;28.13;15.67;;;;;;;11.69;57.60;95618.31;5024274;28;20216;-67
2022/11/02 06:52:44;;;;;;;26.60;16.70;;;;;;;11.80;57.72;95610.22;5025068;28;20182;-68
2022/11/02 06:55:11;;;;;;;27.77;16.50;;;;;;;11.98;57.10;95614.75;5029105;28;20213;-69
2022/11/02 06:58:06;;;;;;;22.77;15.37;;;;;;;12.10;56.91;95618.84;5028571;28;20190;-69
2022/11/02 07:00:32;;;;;;;27.67;15.27;;;;;;;12.13;56.67;95610.66;5029075;28;20194;-68
2022/11/02 07:02:59;;;;;;;22.70;16.13;;;;;;;12.28;56.00;95603.91;5026507;28;20214;-68
2022/11/02 07:05:24;;;;;;;23.25;13.93;;;;;;;12.45;55.77;95609.34;5028667;28;20186;-68
2022/11/02 07:07:52;;;;;;;24.27;15.48;;;;;;;12.30;56.71;95609.88;5030431;28;20215;-68
2022/11/02 07:10:17;;;;;;;24.02;15.80;;;;;;;12.23;57.53;95605.34;5003871;28;20190;-68
2022/11/02 07:12:43;;;;;;;33.47;17.90;;;;;;;12.40;57.04;95611.59;5030360;28;20241;-68
2022/11/02 07:15:08;;;;;;;26.90;17.02;;;;;;;12.53;56.58;95612.06;5025919;28;20230;-68
2022/11/02 07:17:38;;;;;;;27.70;17.25;;;;;;;12.63;55.92;95607.56;5030039;28;20604;-68
2022/11/02 07:20:04;;;;;;;27.33;17.10;;;;;;;12.69;55.44;95595.59;5030426;28;20190;-68
2022/11/02 07:22:30;;;;;;;26.80;17.15;;;;;;;12.69;55.47;95606.97;5025902;28;20206;-68
2022/11/02 07:24:55;;;;;;;26.38;18.25;;;;;;;12.75;55.12;95594.97;5026030;28;20231;-70
2022/11/02 07:27:21;;;;;;;25.90;18.55;;;;;;;12.80;55.17;95593.56;5027871;28;20190;-67
2022/11/02 07:29:46;;;;;;;26.70;18.58;;;;;;;12.82;55.17;95592.56;5026408;28;20339;-69
2022/11/02 07:32:12;;;;;;;26.25;17.85;;;;;;;12.96;54.25;95597.31;5027823;28;20194;-70
2022/11/02 07:34:37;;;;;;;31.75;18.13;;;;;;;12.82;54.23;95605.78;5026739;28;20210;-68
2022/11/02 07:37:03;;;;;;;33.10;18.02;;;;;;;12.96;54.00;95595.53;5026148;28;20194;-68
2022/11/02 07:39:28;;;;;;;24.77;18.25;;;;;;;13.05;53.60;95601.69;5028548;28;20190;-68
2022/11/02 07:41:54;;;;;;;26.17;17.90;;;;;;;13.16;53.02;95597.97;5018893;28;20253;-68
2022/11/02 07:44:19;;;;;;;30.73;17.42;;;;;;;13.19;53.01;95587.09;5028827;28;20206;-69
2022/11/02 07:46:44;;;;;;;32.38;18.48;;;;;;;13.26;52.52;95590.84;5023050;28;20222;-68
2022/11/02 07:49:10;;;;;;;28.42;15.93;;;;;;;13.36;52.05;95588.91;5027269;28;20683;-68
2022/11/02 07:51:35;;;;;;;31.17;18.17;;;;;;;13.45;52.06;95597.72;5023045;28;20190;-68
2022/11/02 07:54:01;;;;;;;26.85;18.20;;;;;;;13.56;51.66;95592.19;5027441;28;20186;-68
2022/11/02 07:56:27;;;;;;;25.10;16.77;;;;;;;13.51;52.01;95588.34;5028087;28;20805;-69
2022/11/02 07:58:52;;;;;;;25.15;16.20;;;;;;;13.61;51.88;95586.44;5028610;28;20228;-68
2022/11/02 08:01:18;;;;;;;23.27;16.48;;;;;;;13.60;51.62;95579.47;5026891;28;20288;-68
2022/11/02 08:03:43;;;;;;;29.33;17.95;;;;;;;13.76;51.36;95579.56;5028094;28;20202;-68
2022/11/02 08:06:09;;;;;;;24.13;16.15;;;;;;;13.85;51.29;95577.81;5029396;28;20529;-69
2022/11/02 08:08:35;;;;;;;31.33;18.77;;;;;;;13.96;50.94;95585.44;5021056;28;20259;-68
2022/11/02 08:11:06;;;;;;;22.63;17.63;;;;;;;13.95;51.01;95578.47;5020448;28;20725;-68
2022/11/02 08:13:32;;;;;;;27.48;19.25;;;;;;;14.08;50.79;95578.03;5024477;28;20210;-70
2022/11/02 08:15:58;;;;;;;29.63;18.80;;;;;;;14.17;50.48;95566.53;5022955;28;20182;-69
2022/11/02 08:18:25;;;;;;;27.17;18.05;;;;;;;14.21;50.49;95574.97;5026764;28;20571;-70
2022/11/02 08:20:53;;;;;;;26.80;18.98;;;;;;;14.23;50.37;95559.75;5028348;28;20197;-70
2022/11/02 08:23:19;;;;;;;26.73;19.33;;;;;;;14.24;50.31;95559.59;5025962;28;20305;-68
2022/11/02 08:25:47;;;;;;;28.15;18.90;;;;;;;14.43;50.49;95562.94;5020802;28;20198;-68
2022/11/02 08:28:18;;;;;;;31.20;19.17;;;;;;;14.60;50.17;95563.84;5023371;28;20194;-68
2022/11/02 08:30:44;;;;;;;30.77;19.50;;;;;;;14.77;49.50;95563.69;5024279;28;20649;-68
2022/11/02 08:33:12;;;;;;;27.42;19.20;;;;;;;14.84;48.91;95552.47;5026474;28;20327;-69
2022/11/02 08:35:39;;;;;;;33.20;20.80;;;;;;;14.95;48.57;95557.44;5029637;28;20273;-69
2022/11/02 08:38:05;;;;;;;29.40;20.30;;;;;;;14.88;48.73;95557.25;5027656;28;20190;-69
2022/11/02 08:40:31;;;;;;;32.35;20.08;;;;;;;15.07;48.43;95565.84;5027810;28;20685;-69
2022/11/02 08:43:02;;;;;;;30.17;19.23;;;;;;;15.07;48.17;95548.13;5031636;28;20234;-69
2022/11/02 08:45:57;;;;;;;24.98;18.80;;;;;;;15.27;47.81;95558.41;5033097;28;20272;-69
2022/11/02 08:48:23;;;;;;;29.30;19.15;;;;;;;15.33;47.65;95542.66;5043595;28;20647;-69
2022/11/02 08:50:48;;;;;;;26.88;19.00;;;;;;;15.40;47.32;95543.63;5029307;28;20201;-70
2022/11/02 08:53:14;;;;;;;31.42;20.45;;;;;;;15.50;46.96;95545.25;5030216;28;20186;-70
2022/11/02 08:55:39;;;;;;;31.48;20.27;;;;;;;15.61;46.62;95545.75;5032634;28;20209;-70
2022/11/02 08:58:05;;;;;;;28.08;18.67;;;;;;;15.72;46.43;95547.25;5024774;28;20201;-70
2022/11/02 09:00:32;;;;;;;29.73;20.02;;;;;;;15.83;46.70;95546.03;5031485;28;20190;-71
2022/11/02 09:03:03;;;;;;;30.33;20.63;;;;;;;16.04;45.91;95543.66;5030930;28;20302;-70
2022/11/02 09:05:57;;;;;;;32.35;19.75;;;;;;;16.15;46.03;95545.09;5032372;28;20194;-70
2022/11/02 09:08:22;;;;;;;30.15;19.45;;;;;;;16.10;45.48;95529.69;5028949;28;20225;-71
2022/11/02 09:10:50;;;;;;;26.42;19.30;;;;;;;16.16;45.58;95536.13;5031601;28;20329;-71
2022/11/02 09:13:23;;;;;;;31.88;20.90;;;;;;;16.27;44.96;95530.41;5030867;28;20205;-70
2022/11/02 09:15:50;;;;;;;28.58;19.33;;;;;;;16.42;44.79;95533.16;5029490;28;20226;-70
2022/11/02 09:18:16;;;;;;;27.88;20.52;;;;;;;16.51;44.81;95523.31;5031373;28;20281;-70
2022/11/02 09:20:41;;;;;;;26.17;17.83;;;;;;;16.58;44.34;95520.78;5024723;28;20244;-70
2022/11/02 09:23:07;;;;;;;29.40;18.60;;;;;;;16.70;43.98;95525.50;5030033;28;20337;-70
2022/11/02 09:25:32;;;;;;;33.30;20.35;;;;;;;16.94;43.80;95521.84;5027273;28;20325;-70
2022/11/02 09:27:58;;;;;;;30.98;19.38;;;;;;;17.00;43.61;95509.72;5031242;28;20317;-70
2022/11/02 09:30:25;;;;;;;25.30;19.35;;;;;;;17.07;43.09;95507.97;5029779;28;20628;-70
2022/11/02 09:32:59;;;;;;;28.63;17.98;;;;;;;17.18;42.83;95507.53;5032494;28;20192;-70
2022/11/02 09:35:27;;;;;;;26.75;17.00;;;;;;;17.24;42.60;95503.34;5029061;28;20205;-71
2022/11/02 09:37:52;;;;;;;28.15;18.88;;;;;;;17.39;42.38;95498.03;5025549;28;20288;-70
2022/11/02 09:40:21;;;;;;;29.35;18.20;;;;;;;17.57;42.26;95501.16;5029439;28;20673;-70
2022/11/02 09:43:00;;;;;;;30.77;17.73;;;;;;;17.60;41.54;95492.00;5031449;28;20191;-70
2022/11/02 09:45:26;;;;;;;24.15;16.85;;;;;;;17.70;41.75;95489.06;5021526;28;20197;-71
2022/11/02 09:48:04;;;;;;;28.55;17.23;;;;;;;17.80;41.27;95486.97;5029664;28;20283;-71
2022/11/02 09:50:56;;;;;;;23.45;16.90;;;;;;;17.92;41.28;95480.16;5025850;28;20676;-71
2022/11/02 09:53:35;;;;;;;23.08;16.45;;;;;;;18.05;40.89;95471.53;4990522;28;20198;-71
2022/11/02 09:56:04;;;;;;;27.00;17.05;;;;;;;18.10;40.46;95463.00;5011380;28;20229;-72
2022/11/02 09:58:34;;;;;;;22.70;16.77;;;;;;;18.17;40.35;95472.66;4990465;28;20214;-71
2022/11/02 10:01:12;;;;;;;25.98;16.45;;;;;;;18.39;39.70;95470.03;4992084;28;20207;-71
2022/11/02 10:03:57;;;;;;;28.13;16.45;;;;;;;18.59;39.75;95462.25;4994017;28;20339;-71
2022/11/02 10:06:24;;;;;;;24.10;15.50;;;;;;;18.59;40.05;95460.41;5005972;28;20625;-72
2022/11/02 10:09:24;;;;;;;22.55;15.23;;;;;;;18.64;39.03;95465.19;5007963;28;20191;-71
2022/11/02 10:12:00;;;;;;;27.70;15.45;;;;;;;18.79;39.23;95451.81;4994614;28;20195;-70
2022/11/02 10:15:08;;;;;;;25.73;14.73;;;;;;;19.01;38.54;95450.78;4993402;28;20233;-71
2022/11/02 10:17:37;;;;;;;28.00;15.40;;;;;;;19.24;38.41;95447.03;4947450;29;20227;-71
2022/11/02 10:20:10;;;;;;;22.60;14.70;;;;;;;19.49;37.84;95442.06;4917692;29;20216;-70
2022/11/02 10:22:40;;;;;;;23.50;14.90;;;;;;;19.63;37.51;95437.63;4916511;29;20241;-71
2022/11/02 10:25:06;;;;;;;27.20;15.00;;;;;;;19.75;37.23;95447.56;4931307;29;20213;-73
2022/11/02 10:27:36;;;;;;;24.83;14.75;;;;;;;19.91;36.72;95435.72;4930003;28;20212;-75
2022/11/02 10:30:15;;;;;;;27.10;14.38;;;;;;;20.03;36.60;95431.44;4922760;29;20828;-69
2022/11/02 10:32:44;;;;;;;25.55;14.50;;;;;;;20.30;36.40;95428.03;4936476;29;20235;-68
2022/11/02 10:35:37;;;;;;;23.13;14.95;;;;;;;20.43;36.32;95431.56;4935088;29;20209;-69
2022/11/02 10:38:11;;;;;;;22.73;14.25;;;;;;;20.72;37.00;95415.41;4934311;29;20225;-69
2022/11/02 10:41:01;;;;;;;22.67;13.68;;;;;;;20.77;34.80;95410.22;4967772;28;20215;-69
2022/11/02 10:43:58;;;;;;;25.83;14.13;;;;;;;20.87;35.63;95413.31;4968018;28;20368;-69
2022/11/02 10:46:29;;;;;;;24.17;13.77;;;;;;;21.11;35.61;95410.00;4949627;28;20618;-69
2022/11/02 10:49:04;;;;;;;21.40;12.90;;;;;;;21.26;35.12;95407.13;4951597;29;20208;-68
2022/11/02 10:51:30;;;;;;;26.05;15.65;;;;;;;21.47;34.78;95395.38;4935613;29;20217;-68
2022/11/02 10:53:56;;;;;;;24.20;14.57;;;;;;;21.71;34.42;95398.41;4978810;28;20201;-68
2022/11/02 10:56:29;;;;;;;22.33;14.48;;;;;;;21.89;34.40;95400.34;5026190;28;20210;-69
2022/11/02 10:58:58;;;;;;;17.25;9.75;;;;;;;22.09;32.29;95390.38;5029162;28;20196;-68
2022/11/02 11:01:25;;;;;;;15.30;8.23;;;;;;;22.21;32.08;95393.22;5027830;28;20190;-68
2022/11/02 11:03:57;;;;;;;16.85;8.60;;;;;;;22.42;31.38;95392.06;5025819;28;20213;-68
2022/11/02 11:06:33;;;;;;;18.10;8.18;;;;;;;22.53;30.73;95390.53;5021938;28;20198;-69
2022/11/02 11:09:06;;;;;;;17.75;7.53;;;;;;;22.59;30.05;95374.44;5029718;28;20665;-69
2022/11/02 11:11:36;;;;;;;16.60;8.85;;;;;;;22.80;30.73;95383.97;5026508;28;20290;-68
2022/11/02 11:14:06;;;;;;;19.05;9.40;;;;;;;23.02;30.25;95373.69;5030229;28;20241;-68
2022/11/02 11:16:42;;;;;;;19.45;9.93;;;;;;;23.15;30.24;95377.28;5027620;28;20214;-68
2022/11/02 11:19:46;;;;;;;22.60;10.98;;;;;;;23.22;29.48;95369.97;5028525;28;20245;-68
2022/11/02 11:22:38;;;;;;;17.33;9.60;;;;;;;23.47;29.51;95372.59;5020334;28;20293;-68
2022/11/02 11:25:09;;;;;;;16.25;7.53;;;;;;;23.52;28.67;95368.22;5021620;28;20558;-67
2022/11/02 11:27:53;;;;;;;16.00;6.65;;;;;;;23.75;26.82;95370.25;5027778;28;20187;-68
2022/11/02 11:30:27;;;;;;;12.55;5.78;;;;;;;23.93;26.59;95349.78;5027280;28;20206;-68
2022/11/02 11:32:54;;;;;;;12.00;6.43;;;;;;;24.02;26.81;95351.09;5025175;28;20646;-68
2022/11/02 11:35:21;;;;;;;10.50;5.07;;;;;;;24.24;25.71;95346.03;5022679;28;20232;-68
2022/11/02 11:37:54;;;;;;;9.57;5.78;;;;;;;24.42;26.01;95351.34;5028748;28;20198;-68
2022/11/02 11:40:21;;;;;;;12.25;5.53;;;;;;;25.75;23.56;95348.22;5025956;28;20189;-69
2022/11/02 11:42:53;;;;;;;11.70;6.22;;;;;;;34.14;14.60;95345.44;5029455;28;20261;-69
2022/11/02 11:45:25;;;;;;;14.32;5.05;;;;;;;38.33;10.05;95338.50;5022143;28;20199;-71